sensor_id;sensor_type;location;lat;lon;timestamp;P1;durP1;ratioP1;P2;durP2;ratioP2
68284;SDS011;55114;52.052;5.238;2022-11-14T00:00:57;15.52;;;8.07;;
68284;SDS011;55114;52.052;5.238;2022-11-14T00:03:24;15.80;;;8.27;;
68284;SDS011;55114;52.052;5.238;2022-11-14T00:05:51;15.85;;;8.02;;
68284;SDS011;55114;52.052;5.238;2022-11-14T00:08:22;15.43;;;8.20;;
68284;SDS011;55114;52.052;5.238;2022-11-14T00:10:50;16.17;;;8.13;;
68284;SDS011;55114;52.052;5.238;2022-11-14T00:13:18;15.13;;;8.35;;
68284;SDS011;55114;52.052;5.238;2022-11-14T00:15:50;17.27;;;8.45;;
68284;SDS011;55114;52.052;5.238;2022-11-14T00:18:19;15.38;;;8.30;;
68284;SDS011;55114;52.052;5.238;2022-11-14T00:20:49;16.67;;;9.00;;
68284;SDS011;55114;52.052;5.238;2022-11-14T00:23:17;16.10;;;8.40;;
68284;SDS011;55114;52.052;5.238;2022-11-14T00:25:44;17.60;;;8.75;;
68284;SDS011;55114;52.052;5.238;2022-11-14T00:28:12;18.08;;;9.43;;
68284;SDS011;55114;52.052;5.238;2022-11-14T00:30:39;16.98;;;8.52;;
68284;SDS011;55114;52.052;5.238;2022-11-14T00:33:06;17.95;;;9.25;;
68284;SDS011;55114;52.052;5.238;2022-11-14T00:35:33;18.83;;;9.30;;
68284;SDS011;55114;52.052;5.238;2022-11-14T00:38:00;16.45;;;8.73;;
68284;SDS011;55114;52.052;5.238;2022-11-14T00:40:27;15.77;;;9.10;;
68284;SDS011;55114;52.052;5.238;2022-11-14T00:42:54;18.73;;;9.65;;
68284;SDS011;55114;52.052;5.238;2022-11-14T00:45:22;20.42;;;9.57;;
68284;SDS011;55114;52.052;5.238;2022-11-14T00:47:49;18.27;;;9.20;;
68284;SDS011;55114;52.052;5.238;2022-11-14T00:50:16;20.02;;;9.82;;
68284;SDS011;55114;52.052;5.238;2022-11-14T00:52:44;19.58;;;9.57;;
68284;SDS011;55114;52.052;5.238;2022-11-14T00:55:11;20.70;;;9.90;;
68284;SDS011;55114;52.052;5.238;2022-11-14T00:57:38;18.50;;;9.65;;
68284;SDS011;55114;52.052;5.238;2022-11-14T01:00:05;18.30;;;9.10;;
68284;SDS011;55114;52.052;5.238;2022-11-14T01:02:32;21.20;;;9.30;;
68284;SDS011;55114;52.052;5.238;2022-11-14T01:05:00;20.30;;;9.90;;
68284;SDS011;55114;52.052;5.238;2022-11-14T01:07:27;19.50;;;9.90;;
68284;SDS011;55114;52.052;5.238;2022-11-14T01:09:55;20.60;;;10.23;;
68284;SDS011;55114;52.052;5.238;2022-11-14T01:12:22;19.07;;;9.40;;
68284;SDS011;55114;52.052;5.238;2022-11-14T01:14:49;19.42;;;9.50;;
68284;SDS011;55114;52.052;5.238;2022-11-14T01:17:17;21.15;;;10.02;;
68284;SDS011;55114;52.052;5.238;2022-11-14T01:19:44;21.67;;;9.85;;
68284;SDS011;55114;52.052;5.238;2022-11-14T01:22:11;20.90;;;10.10;;
68284;SDS011;55114;52.052;5.238;2022-11-14T01:24:38;19.87;;;10.13;;
68284;SDS011;55114;52.052;5.238;2022-11-14T01:27:05;20.77;;;10.35;;
68284;SDS011;55114;52.052;5.238;2022-11-14T01:29:33;20.38;;;10.35;;
68284;SDS011;55114;52.052;5.238;2022-11-14T01:32:00;23.60;;;10.88;;
68284;SDS011;55114;52.052;5.238;2022-11-14T01:34:27;24.05;;;10.80;;
68284;SDS011;55114;52.052;5.238;2022-11-14T01:36:54;23.77;;;10.90;;
68284;SDS011;55114;52.052;5.238;2022-11-14T01:39:21;23.73;;;10.20;;
68284;SDS011;55114;52.052;5.238;2022-11-14T01:41:49;24.20;;;10.75;;
68284;SDS011;55114;52.052;5.238;2022-11-14T01:44:17;22.92;;;10.43;;
68284;SDS011;55114;52.052;5.238;2022-11-14T01:47:03;23.05;;;10.43;;
68284;SDS011;55114;52.052;5.238;2022-11-14T01:49:38;24.13;;;10.97;;
68284;SDS011;55114;52.052;5.238;2022-11-14T01:54:36;26.50;;;11.38;;
68284;SDS011;55114;52.052;5.238;2022-11-14T01:57:04;25.65;;;11.32;;
68284;SDS011;55114;52.052;5.238;2022-11-14T01:59:33;25.10;;;11.27;;
68284;SDS011;55114;52.052;5.238;2022-11-14T02:02:03;25.00;;;11.10;;
68284;SDS011;55114;52.052;5.238;2022-11-14T02:04:33;25.52;;;11.25;;
68284;SDS011;55114;52.052;5.238;2022-11-14T02:07:02;26.10;;;11.32;;
68284;SDS011;55114;52.052;5.238;2022-11-14T02:09:34;27.60;;;11.68;;
68284;SDS011;55114;52.052;5.238;2022-11-14T02:12:03;26.65;;;11.43;;
68284;SDS011;55114;52.052;5.238;2022-11-14T02:14:30;25.73;;;11.90;;
68284;SDS011;55114;52.052;5.238;2022-11-14T02:16:58;24.38;;;11.23;;
68284;SDS011;55114;52.052;5.238;2022-11-14T02:19:47;27.08;;;11.82;;
68284;SDS011;55114;52.052;5.238;2022-11-14T02:22:14;25.80;;;11.80;;
68284;SDS011;55114;52.052;5.238;2022-11-14T02:24:42;25.88;;;11.85;;
68284;SDS011;55114;52.052;5.238;2022-11-14T02:27:09;29.93;;;11.67;;
68284;SDS011;55114;52.052;5.238;2022-11-14T02:29:37;27.55;;;11.63;;
68284;SDS011;55114;52.052;5.238;2022-11-14T02:32:04;29.92;;;12.35;;
68284;SDS011;55114;52.052;5.238;2022-11-14T02:34:36;26.40;;;11.13;;
68284;SDS011;55114;52.052;5.238;2022-11-14T02:37:03;31.80;;;12.73;;
68284;SDS011;55114;52.052;5.238;2022-11-14T02:39:30;33.17;;;13.73;;
68284;SDS011;55114;52.052;5.238;2022-11-14T02:41:57;32.47;;;13.15;;
68284;SDS011;55114;52.052;5.238;2022-11-14T02:44:25;32.05;;;12.70;;
68284;SDS011;55114;52.052;5.238;2022-11-14T02:46:52;29.70;;;12.15;;
68284;SDS011;55114;52.052;5.238;2022-11-14T02:49:19;33.20;;;12.95;;
68284;SDS011;55114;52.052;5.238;2022-11-14T02:51:46;29.23;;;12.37;;
68284;SDS011;55114;52.052;5.238;2022-11-14T02:54:13;31.40;;;12.95;;
68284;SDS011;55114;52.052;5.238;2022-11-14T02:56:40;28.60;;;12.15;;
68284;SDS011;55114;52.052;5.238;2022-11-14T02:59:07;29.77;;;12.25;;
68284;SDS011;55114;52.052;5.238;2022-11-14T03:01:35;31.73;;;12.77;;
68284;SDS011;55114;52.052;5.238;2022-11-14T03:04:02;27.63;;;11.13;;
68284;SDS011;55114;52.052;5.238;2022-11-14T03:06:29;30.55;;;13.07;;
68284;SDS011;55114;52.052;5.238;2022-11-14T03:08:57;32.03;;;13.15;;
68284;SDS011;55114;52.052;5.238;2022-11-14T03:11:24;29.17;;;12.43;;
68284;SDS011;55114;52.052;5.238;2022-11-14T03:13:51;33.25;;;13.05;;
68284;SDS011;55114;52.052;5.238;2022-11-14T03:16:18;35.23;;;13.43;;
68284;SDS011;55114;52.052;5.238;2022-11-14T03:18:45;36.40;;;13.82;;
68284;SDS011;55114;52.052;5.238;2022-11-14T03:21:14;32.72;;;12.50;;
68284;SDS011;55114;52.052;5.238;2022-11-14T03:23:42;30.45;;;12.18;;
68284;SDS011;55114;52.052;5.238;2022-11-14T03:26:09;34.22;;;13.98;;
68284;SDS011;55114;52.052;5.238;2022-11-14T03:28:37;36.03;;;13.87;;
68284;SDS011;55114;52.052;5.238;2022-11-14T03:31:05;29.08;;;12.63;;
68284;SDS011;55114;52.052;5.238;2022-11-14T03:33:33;30.30;;;12.68;;
68284;SDS011;55114;52.052;5.238;2022-11-14T03:36:00;32.50;;;13.27;;
68284;SDS011;55114;52.052;5.238;2022-11-14T03:38:27;33.67;;;13.35;;
68284;SDS011;55114;52.052;5.238;2022-11-14T03:40:56;37.10;;;13.90;;
68284;SDS011;55114;52.052;5.238;2022-11-14T03:43:24;34.88;;;12.65;;
68284;SDS011;55114;52.052;5.238;2022-11-14T03:45:52;33.20;;;12.88;;
68284;SDS011;55114;52.052;5.238;2022-11-14T03:48:19;29.80;;;12.00;;
68284;SDS011;55114;52.052;5.238;2022-11-14T03:50:46;34.63;;;13.10;;
68284;SDS011;55114;52.052;5.238;2022-11-14T03:53:13;31.37;;;13.07;;
68284;SDS011;55114;52.052;5.238;2022-11-14T03:55:42;33.13;;;12.20;;
68284;SDS011;55114;52.052;5.238;2022-11-14T03:58:09;33.72;;;13.40;;
68284;SDS011;55114;52.052;5.238;2022-11-14T04:00:36;33.30;;;12.75;;
68284;SDS011;55114;52.052;5.238;2022-11-14T04:03:03;35.03;;;13.13;;
68284;SDS011;55114;52.052;5.238;2022-11-14T04:05:30;33.33;;;12.53;;
68284;SDS011;55114;52.052;5.238;2022-11-14T04:07:58;31.35;;;12.57;;
68284;SDS011;55114;52.052;5.238;2022-11-14T04:10:25;31.95;;;12.90;;
68284;SDS011;55114;52.052;5.238;2022-11-14T04:12:52;34.83;;;13.52;;
68284;SDS011;55114;52.052;5.238;2022-11-14T04:15:20;35.08;;;13.68;;
68284;SDS011;55114;52.052;5.238;2022-11-14T04:17:47;34.90;;;12.77;;
68284;SDS011;55114;52.052;5.238;2022-11-14T04:20:14;34.03;;;12.77;;
68284;SDS011;55114;52.052;5.238;2022-11-14T04:22:41;33.63;;;12.82;;
68284;SDS011;55114;52.052;5.238;2022-11-14T04:25:08;34.10;;;12.73;;
68284;SDS011;55114;52.052;5.238;2022-11-14T04:27:36;34.72;;;12.93;;
68284;SDS011;55114;52.052;5.238;2022-11-14T04:30:03;31.80;;;11.93;;
68284;SDS011;55114;52.052;5.238;2022-11-14T04:32:31;33.83;;;13.18;;
68284;SDS011;55114;52.052;5.238;2022-11-14T04:34:58;34.42;;;13.60;;
68284;SDS011;55114;52.052;5.238;2022-11-14T04:37:25;30.98;;;12.63;;
68284;SDS011;55114;52.052;5.238;2022-11-14T04:39:53;34.78;;;12.77;;
68284;SDS011;55114;52.052;5.238;2022-11-14T04:42:25;34.60;;;12.50;;
68284;SDS011;55114;52.052;5.238;2022-11-14T04:44:53;36.08;;;13.82;;
68284;SDS011;55114;52.052;5.238;2022-11-14T04:47:20;32.03;;;12.93;;
68284;SDS011;55114;52.052;5.238;2022-11-14T04:49:47;32.70;;;12.00;;
68284;SDS011;55114;52.052;5.238;2022-11-14T04:52:14;36.83;;;13.43;;
68284;SDS011;55114;52.052;5.238;2022-11-14T04:54:41;31.80;;;12.63;;
68284;SDS011;55114;52.052;5.238;2022-11-14T04:57:08;34.92;;;13.68;;
68284;SDS011;55114;52.052;5.238;2022-11-14T04:59:35;34.63;;;13.85;;
68284;SDS011;55114;52.052;5.238;2022-11-14T05:02:03;32.88;;;12.82;;
68284;SDS011;55114;52.052;5.238;2022-11-14T05:04:30;32.42;;;12.65;;
68284;SDS011;55114;52.052;5.238;2022-11-14T05:06:57;34.27;;;12.67;;
68284;SDS011;55114;52.052;5.238;2022-11-14T05:09:24;33.45;;;13.30;;
68284;SDS011;55114;52.052;5.238;2022-11-14T05:11:51;35.22;;;12.07;;
68284;SDS011;55114;52.052;5.238;2022-11-14T05:14:19;31.95;;;13.00;;
68284;SDS011;55114;52.052;5.238;2022-11-14T05:16:46;33.78;;;12.98;;
68284;SDS011;55114;52.052;5.238;2022-11-14T05:19:13;33.00;;;12.03;;
68284;SDS011;55114;52.052;5.238;2022-11-14T05:21:40;33.05;;;12.35;;
68284;SDS011;55114;52.052;5.238;2022-11-14T05:24:09;33.67;;;13.02;;
68284;SDS011;55114;52.052;5.238;2022-11-14T05:26:36;34.60;;;13.02;;
68284;SDS011;55114;52.052;5.238;2022-11-14T05:29:04;34.28;;;13.07;;
68284;SDS011;55114;52.052;5.238;2022-11-14T05:31:32;34.30;;;12.40;;
68284;SDS011;55114;52.052;5.238;2022-11-14T05:33:59;32.80;;;12.32;;
68284;SDS011;55114;52.052;5.238;2022-11-14T05:36:26;39.45;;;13.77;;
68284;SDS011;55114;52.052;5.238;2022-11-14T05:38:53;36.05;;;12.60;;
68284;SDS011;55114;52.052;5.238;2022-11-14T05:41:21;34.80;;;13.20;;
68284;SDS011;55114;52.052;5.238;2022-11-14T05:43:48;35.50;;;13.03;;
68284;SDS011;55114;52.052;5.238;2022-11-14T05:46:15;34.28;;;12.90;;
68284;SDS011;55114;52.052;5.238;2022-11-14T05:48:43;31.38;;;13.00;;
68284;SDS011;55114;52.052;5.238;2022-11-14T05:51:10;32.13;;;12.52;;
68284;SDS011;55114;52.052;5.238;2022-11-14T05:53:38;35.15;;;12.05;;
68284;SDS011;55114;52.052;5.238;2022-11-14T05:56:08;30.37;;;11.50;;
68284;SDS011;55114;52.052;5.238;2022-11-14T05:58:36;35.65;;;13.15;;
68284;SDS011;55114;52.052;5.238;2022-11-14T06:01:04;34.03;;;12.73;;
68284;SDS011;55114;52.052;5.238;2022-11-14T06:03:32;30.80;;;11.30;;
68284;SDS011;55114;52.052;5.238;2022-11-14T06:06:00;35.25;;;13.05;;
68284;SDS011;55114;52.052;5.238;2022-11-14T06:08:28;32.80;;;12.20;;
68284;SDS011;55114;52.052;5.238;2022-11-14T06:11:00;34.28;;;12.13;;
68284;SDS011;55114;52.052;5.238;2022-11-14T06:13:27;31.45;;;12.40;;
68284;SDS011;55114;52.052;5.238;2022-11-14T06:16:01;30.75;;;11.38;;
68284;SDS011;55114;52.052;5.238;2022-11-14T06:18:29;30.65;;;11.95;;
68284;SDS011;55114;52.052;5.238;2022-11-14T06:23:27;31.75;;;11.55;;
68284;SDS011;55114;52.052;5.238;2022-11-14T06:26:01;29.27;;;11.60;;
68284;SDS011;55114;52.052;5.238;2022-11-14T06:28:29;32.15;;;12.10;;
68284;SDS011;55114;52.052;5.238;2022-11-14T06:31:00;31.50;;;11.88;;
68284;SDS011;55114;52.052;5.238;2022-11-14T06:33:28;28.63;;;11.53;;
68284;SDS011;55114;52.052;5.238;2022-11-14T06:35:56;32.22;;;11.75;;
68284;SDS011;55114;52.052;5.238;2022-11-14T06:38:24;30.88;;;12.50;;
68284;SDS011;55114;52.052;5.238;2022-11-14T06:40:51;29.15;;;10.80;;
68284;SDS011;55114;52.052;5.238;2022-11-14T06:43:18;32.42;;;11.55;;
68284;SDS011;55114;52.052;5.238;2022-11-14T06:45:45;30.63;;;11.77;;
68284;SDS011;55114;52.052;5.238;2022-11-14T06:48:12;31.67;;;12.05;;
68284;SDS011;55114;52.052;5.238;2022-11-14T06:50:39;29.70;;;11.43;;
68284;SDS011;55114;52.052;5.238;2022-11-14T06:53:07;30.05;;;11.65;;
68284;SDS011;55114;52.052;5.238;2022-11-14T06:55:34;27.55;;;10.65;;
68284;SDS011;55114;52.052;5.238;2022-11-14T06:58:01;29.33;;;11.53;;
68284;SDS011;55114;52.052;5.238;2022-11-14T07:00:28;31.35;;;11.45;;
68284;SDS011;55114;52.052;5.238;2022-11-14T07:02:55;29.33;;;11.13;;
68284;SDS011;55114;52.052;5.238;2022-11-14T07:05:23;29.02;;;10.95;;
68284;SDS011;55114;52.052;5.238;2022-11-14T07:07:50;27.85;;;11.05;;
68284;SDS011;55114;52.052;5.238;2022-11-14T07:10:17;29.00;;;11.23;;
68284;SDS011;55114;52.052;5.238;2022-11-14T07:12:44;29.95;;;11.60;;
68284;SDS011;55114;52.052;5.238;2022-11-14T07:15:11;29.85;;;10.98;;
68284;SDS011;55114;52.052;5.238;2022-11-14T07:17:39;27.73;;;10.88;;
68284;SDS011;55114;52.052;5.238;2022-11-14T07:20:06;25.63;;;11.13;;
68284;SDS011;55114;52.052;5.238;2022-11-14T07:22:33;30.30;;;10.60;;
68284;SDS011;55114;52.052;5.238;2022-11-14T07:25:00;31.95;;;11.18;;
68284;SDS011;55114;52.052;5.238;2022-11-14T07:27:28;26.45;;;10.50;;
68284;SDS011;55114;52.052;5.238;2022-11-14T07:29:55;29.80;;;11.40;;
68284;SDS011;55114;52.052;5.238;2022-11-14T07:32:22;29.15;;;10.80;;
68284;SDS011;55114;52.052;5.238;2022-11-14T07:34:49;28.23;;;10.87;;
68284;SDS011;55114;52.052;5.238;2022-11-14T07:37:16;26.73;;;10.40;;
68284;SDS011;55114;52.052;5.238;2022-11-14T07:39:44;27.55;;;10.88;;
68284;SDS011;55114;52.052;5.238;2022-11-14T07:42:11;26.40;;;10.45;;
68284;SDS011;55114;52.052;5.238;2022-11-14T07:44:38;27.02;;;10.40;;
68284;SDS011;55114;52.052;5.238;2022-11-14T07:47:05;24.90;;;9.93;;
68284;SDS011;55114;52.052;5.238;2022-11-14T07:49:32;28.33;;;10.45;;
68284;SDS011;55114;52.052;5.238;2022-11-14T07:51:59;22.98;;;9.50;;
68284;SDS011;55114;52.052;5.238;2022-11-14T07:54:26;23.45;;;9.63;;
68284;SDS011;55114;52.052;5.238;2022-11-14T07:56:53;23.15;;;9.77;;
68284;SDS011;55114;52.052;5.238;2022-11-14T07:59:20;25.33;;;10.30;;
68284;SDS011;55114;52.052;5.238;2022-11-14T08:01:47;27.75;;;9.98;;
68284;SDS011;55114;52.052;5.238;2022-11-14T08:04:14;24.77;;;10.32;;
68284;SDS011;55114;52.052;5.238;2022-11-14T08:06:42;21.80;;;9.25;;
68284;SDS011;55114;52.052;5.238;2022-11-14T08:09:09;26.30;;;10.98;;
68284;SDS011;55114;52.052;5.238;2022-11-14T08:11:36;25.37;;;10.13;;
68284;SDS011;55114;52.052;5.238;2022-11-14T08:14:15;24.33;;;9.60;;
68284;SDS011;55114;52.052;5.238;2022-11-14T08:16:42;24.20;;;9.70;;
68284;SDS011;55114;52.052;5.238;2022-11-14T08:19:10;22.38;;;9.13;;
68284;SDS011;55114;52.052;5.238;2022-11-14T08:21:37;22.92;;;9.15;;
68284;SDS011;55114;52.052;5.238;2022-11-14T08:24:04;22.07;;;8.87;;
68284;SDS011;55114;52.052;5.238;2022-11-14T08:26:31;24.13;;;9.63;;
68284;SDS011;55114;52.052;5.238;2022-11-14T08:28:59;24.98;;;9.55;;
68284;SDS011;55114;52.052;5.238;2022-11-14T08:31:27;20.70;;;8.77;;
68284;SDS011;55114;52.052;5.238;2022-11-14T08:33:54;20.63;;;9.13;;
68284;SDS011;55114;52.052;5.238;2022-11-14T08:36:21;22.17;;;8.70;;
68284;SDS011;55114;52.052;5.238;2022-11-14T08:38:48;24.05;;;8.85;;
68284;SDS011;55114;52.052;5.238;2022-11-14T08:41:17;21.25;;;9.20;;
68284;SDS011;55114;52.052;5.238;2022-11-14T08:43:44;21.60;;;9.40;;
68284;SDS011;55114;52.052;5.238;2022-11-14T08:46:11;22.35;;;8.85;;
68284;SDS011;55114;52.052;5.238;2022-11-14T08:48:38;20.70;;;9.10;;
68284;SDS011;55114;52.052;5.238;2022-11-14T08:51:06;20.10;;;8.50;;
68284;SDS011;55114;52.052;5.238;2022-11-14T08:53:33;22.60;;;9.48;;
68284;SDS011;55114;52.052;5.238;2022-11-14T08:56:00;22.73;;;8.48;;
68284;SDS011;55114;52.052;5.238;2022-11-14T08:58:28;21.90;;;9.52;;
68284;SDS011;55114;52.052;5.238;2022-11-14T09:01:04;22.63;;;9.50;;
68284;SDS011;55114;52.052;5.238;2022-11-14T09:03:31;21.35;;;8.68;;
68284;SDS011;55114;52.052;5.238;2022-11-14T09:05:59;20.02;;;9.05;;
68284;SDS011;55114;52.052;5.238;2022-11-14T09:08:26;19.17;;;8.75;;
68284;SDS011;55114;52.052;5.238;2022-11-14T09:10:54;22.17;;;9.80;;
68284;SDS011;55114;52.052;5.238;2022-11-14T09:13:30;18.87;;;7.93;;
68284;SDS011;55114;52.052;5.238;2022-11-14T09:15:58;22.45;;;9.45;;
68284;SDS011;55114;52.052;5.238;2022-11-14T09:18:25;17.67;;;8.77;;
68284;SDS011;55114;52.052;5.238;2022-11-14T09:20:57;19.50;;;8.60;;
68284;SDS011;55114;52.052;5.238;2022-11-14T09:23:24;21.20;;;9.20;;
68284;SDS011;55114;52.052;5.238;2022-11-14T09:25:52;20.57;;;9.20;;
68284;SDS011;55114;52.052;5.238;2022-11-14T09:28:20;20.05;;;8.48;;
68284;SDS011;55114;52.052;5.238;2022-11-14T09:30:47;19.00;;;8.23;;
68284;SDS011;55114;52.052;5.238;2022-11-14T09:33:14;18.15;;;8.02;;
68284;SDS011;55114;52.052;5.238;2022-11-14T09:35:41;18.63;;;8.60;;
68284;SDS011;55114;52.052;5.238;2022-11-14T09:38:09;21.00;;;8.67;;
68284;SDS011;55114;52.052;5.238;2022-11-14T09:40:50;19.13;;;9.15;;
68284;SDS011;55114;52.052;5.238;2022-11-14T09:43:24;19.73;;;9.10;;
68284;SDS011;55114;52.052;5.238;2022-11-14T09:45:53;19.02;;;9.18;;
68284;SDS011;55114;52.052;5.238;2022-11-14T09:48:21;18.40;;;8.88;;
68284;SDS011;55114;52.052;5.238;2022-11-14T09:50:52;17.83;;;8.00;;
68284;SDS011;55114;52.052;5.238;2022-11-14T09:53:30;18.15;;;8.80;;
68284;SDS011;55114;52.052;5.238;2022-11-14T09:55:58;20.48;;;9.20;;
68284;SDS011;55114;52.052;5.238;2022-11-14T09:58:26;17.90;;;8.55;;
68284;SDS011;55114;52.052;5.238;2022-11-14T10:01:00;21.73;;;9.30;;
68284;SDS011;55114;52.052;5.238;2022-11-14T10:03:42;18.17;;;8.50;;
68284;SDS011;55114;52.052;5.238;2022-11-14T10:09:01;22.42;;;9.65;;
68284;SDS011;55114;52.052;5.238;2022-11-14T10:11:35;18.77;;;8.77;;
68284;SDS011;55114;52.052;5.238;2022-11-14T10:14:14;21.55;;;9.60;;
68284;SDS011;55114;52.052;5.238;2022-11-14T10:16:51;20.13;;;9.13;;
68284;SDS011;55114;52.052;5.238;2022-11-14T10:22:00;18.38;;;8.82;;
68284;SDS011;55114;52.052;5.238;2022-11-14T10:27:04;19.23;;;9.30;;
68284;SDS011;55114;52.052;5.238;2022-11-14T10:39:43;17.52;;;8.75;;
68284;SDS011;55114;52.052;5.238;2022-11-14T10:42:11;18.30;;;9.23;;
68284;SDS011;55114;52.052;5.238;2022-11-14T10:44:49;19.80;;;9.13;;
68284;SDS011;55114;52.052;5.238;2022-11-14T10:47:17;20.00;;;9.50;;
68284;SDS011;55114;52.052;5.238;2022-11-14T10:49:45;20.65;;;9.48;;
68284;SDS011;55114;52.052;5.238;2022-11-14T10:52:14;18.90;;;9.27;;
68284;SDS011;55114;52.052;5.238;2022-11-14T10:54:46;18.33;;;9.23;;
68284;SDS011;55114;52.052;5.238;2022-11-14T10:57:20;20.80;;;9.15;;
68284;SDS011;55114;52.052;5.238;2022-11-14T10:59:47;18.35;;;9.23;;
68284;SDS011;55114;52.052;5.238;2022-11-14T11:02:14;16.65;;;8.80;;
68284;SDS011;55114;52.052;5.238;2022-11-14T11:04:42;16.67;;;9.15;;
68284;SDS011;55114;52.052;5.238;2022-11-14T11:10:00;16.50;;;8.70;;
68284;SDS011;55114;52.052;5.238;2022-11-14T11:12:47;19.52;;;9.48;;
68284;SDS011;55114;52.052;5.238;2022-11-14T11:15:17;18.08;;;9.52;;
68284;SDS011;55114;52.052;5.238;2022-11-14T11:18:01;17.25;;;9.18;;
68284;SDS011;55114;52.052;5.238;2022-11-14T11:23:03;18.47;;;9.43;;
68284;SDS011;55114;52.052;5.238;2022-11-14T11:25:31;17.15;;;9.45;;
68284;SDS011;55114;52.052;5.238;2022-11-14T11:28:03;16.70;;;9.70;;
68284;SDS011;55114;52.052;5.238;2022-11-14T11:30:32;19.75;;;9.77;;
68284;SDS011;55114;52.052;5.238;2022-11-14T11:35:45;18.17;;;9.90;;
68284;SDS011;55114;52.052;5.238;2022-11-14T11:38:14;18.65;;;9.45;;
68284;SDS011;55114;52.052;5.238;2022-11-14T11:40:43;18.27;;;9.77;;
68284;SDS011;55114;52.052;5.238;2022-11-14T11:46:05;18.35;;;9.35;;
68284;SDS011;55114;52.052;5.238;2022-11-14T11:48:36;17.20;;;9.50;;
68284;SDS011;55114;52.052;5.238;2022-11-14T11:51:04;17.60;;;9.80;;
68284;SDS011;55114;52.052;5.238;2022-11-14T11:53:35;18.20;;;10.18;;
68284;SDS011;55114;52.052;5.238;2022-11-14T11:56:14;18.75;;;10.00;;
68284;SDS011;55114;52.052;5.238;2022-11-14T11:58:44;18.27;;;9.68;;
68284;SDS011;55114;52.052;5.238;2022-11-14T12:01:13;19.53;;;9.63;;
68284;SDS011;55114;52.052;5.238;2022-11-14T12:03:50;18.05;;;10.07;;
68284;SDS011;55114;52.052;5.238;2022-11-14T12:06:18;20.25;;;10.15;;
68284;SDS011;55114;52.052;5.238;2022-11-14T12:09:38;18.35;;;9.45;;
68284;SDS011;55114;52.052;5.238;2022-11-14T12:11:41;17.23;;;10.30;;
68284;SDS011;55114;52.052;5.238;2022-11-14T12:27:50;19.23;;;10.10;;
68284;SDS011;55114;52.052;5.238;2022-11-14T12:30:22;21.92;;;10.73;;
68284;SDS011;55114;52.052;5.238;2022-11-14T12:35:51;21.10;;;10.07;;
68284;SDS011;55114;52.052;5.238;2022-11-14T12:38:19;20.98;;;10.70;;
68284;SDS011;55114;52.052;5.238;2022-11-14T12:40:51;23.77;;;12.40;;
68284;SDS011;55114;52.052;5.238;2022-11-14T12:43:35;22.17;;;11.70;;
68284;SDS011;55114;52.052;5.238;2022-11-14T12:46:05;25.67;;;12.63;;
68284;SDS011;55114;52.052;5.238;2022-11-14T12:48:37;28.08;;;14.15;;
68284;SDS011;55114;52.052;5.238;2022-11-14T12:51:08;34.90;;;16.02;;
68284;SDS011;55114;52.052;5.238;2022-11-14T12:53:53;34.53;;;16.23;;
68284;SDS011;55114;52.052;5.238;2022-11-14T13:04:52;35.65;;;17.67;;
68284;SDS011;55114;52.052;5.238;2022-11-14T13:07:34;36.63;;;17.67;;
68284;SDS011;55114;52.052;5.238;2022-11-14T13:10:15;34.75;;;16.95;;
68284;SDS011;55114;52.052;5.238;2022-11-14T13:12:57;36.60;;;17.90;;
68284;SDS011;55114;52.052;5.238;2022-11-14T13:15:48;37.47;;;18.00;;
68284;SDS011;55114;52.052;5.238;2022-11-14T13:18:34;37.83;;;17.92;;
68284;SDS011;55114;52.052;5.238;2022-11-14T13:21:21;36.33;;;18.33;;
68284;SDS011;55114;52.052;5.238;2022-11-14T13:24:14;39.50;;;18.17;;
68284;SDS011;55114;52.052;5.238;2022-11-14T13:26:52;37.40;;;18.08;;
68284;SDS011;55114;52.052;5.238;2022-11-14T13:32:01;38.95;;;18.92;;
68284;SDS011;55114;52.052;5.238;2022-11-14T13:34:35;40.50;;;18.47;;
68284;SDS011;55114;52.052;5.238;2022-11-14T13:50:13;45.22;;;18.98;;
68284;SDS011;55114;52.052;5.238;2022-11-14T13:52:42;46.38;;;18.85;;
68284;SDS011;55114;52.052;5.238;2022-11-14T13:58:13;39.33;;;18.13;;
68284;SDS011;55114;52.052;5.238;2022-11-14T14:03:16;43.70;;;18.80;;
68284;SDS011;55114;52.052;5.238;2022-11-14T14:05:56;45.55;;;19.40;;
68284;SDS011;55114;52.052;5.238;2022-11-14T14:11:31;39.83;;;17.95;;
68284;SDS011;55114;52.052;5.238;2022-11-14T14:19:39;42.47;;;19.60;;
68284;SDS011;55114;52.052;5.238;2022-11-14T14:22:13;40.95;;;18.08;;
68284;SDS011;55114;52.052;5.238;2022-11-14T14:24:46;42.08;;;17.75;;
68284;SDS011;55114;52.052;5.238;2022-11-14T14:29:59;43.65;;;17.63;;
68284;SDS011;55114;52.052;5.238;2022-11-14T14:32:27;39.67;;;17.17;;
68284;SDS011;55114;52.052;5.238;2022-11-14T14:34:55;39.63;;;16.98;;
68284;SDS011;55114;52.052;5.238;2022-11-14T14:37:25;40.95;;;17.67;;
68284;SDS011;55114;52.052;5.238;2022-11-14T14:40:04;41.63;;;17.47;;
68284;SDS011;55114;52.052;5.238;2022-11-14T14:42:38;41.17;;;17.13;;
68284;SDS011;55114;52.052;5.238;2022-11-14T14:45:16;39.30;;;16.90;;
68284;SDS011;55114;52.052;5.238;2022-11-14T14:47:44;39.15;;;17.48;;
68284;SDS011;55114;52.052;5.238;2022-11-14T14:50:14;45.28;;;19.40;;
68284;SDS011;55114;52.052;5.238;2022-11-14T14:52:42;40.53;;;17.90;;
68284;SDS011;55114;52.052;5.238;2022-11-14T14:55:20;39.88;;;17.15;;
68284;SDS011;55114;52.052;5.238;2022-11-14T14:57:48;39.78;;;16.80;;
68284;SDS011;55114;52.052;5.238;2022-11-14T15:00:17;40.67;;;17.38;;
68284;SDS011;55114;52.052;5.238;2022-11-14T15:02:44;40.92;;;17.58;;
68284;SDS011;55114;52.052;5.238;2022-11-14T15:05:20;41.17;;;16.57;;
68284;SDS011;55114;52.052;5.238;2022-11-14T15:07:47;43.28;;;17.25;;
68284;SDS011;55114;52.052;5.238;2022-11-14T15:10:18;39.08;;;16.10;;
68284;SDS011;55114;52.052;5.238;2022-11-14T15:12:46;37.85;;;16.45;;
68284;SDS011;55114;52.052;5.238;2022-11-14T15:15:14;44.55;;;17.67;;
68284;SDS011;55114;52.052;5.238;2022-11-14T15:17:42;41.20;;;17.17;;
68284;SDS011;55114;52.052;5.238;2022-11-14T15:20:23;39.42;;;16.92;;
68284;SDS011;55114;52.052;5.238;2022-11-14T15:25:30;42.20;;;17.17;;
68284;SDS011;55114;52.052;5.238;2022-11-14T15:27:57;46.17;;;18.00;;
68284;SDS011;55114;52.052;5.238;2022-11-14T15:30:29;40.63;;;16.65;;
68284;SDS011;55114;52.052;5.238;2022-11-14T15:32:57;37.85;;;16.38;;
68284;SDS011;55114;52.052;5.238;2022-11-14T15:35:26;39.53;;;15.68;;
68284;SDS011;55114;52.052;5.238;2022-11-14T15:38:28;41.95;;;17.23;;
68284;SDS011;55114;52.052;5.238;2022-11-14T15:43:35;37.63;;;15.55;;
68284;SDS011;55114;52.052;5.238;2022-11-14T15:46:03;35.15;;;15.82;;
68284;SDS011;55114;52.052;5.238;2022-11-14T15:48:31;34.25;;;13.88;;
68284;SDS011;55114;52.052;5.238;2022-11-14T15:50:58;37.25;;;15.25;;
68284;SDS011;55114;52.052;5.238;2022-11-14T15:53:26;40.10;;;15.35;;
68284;SDS011;55114;52.052;5.238;2022-11-14T15:55:55;35.70;;;14.32;;
68284;SDS011;55114;52.052;5.238;2022-11-14T15:58:23;36.05;;;14.77;;
68284;SDS011;55114;52.052;5.238;2022-11-14T16:00:54;33.42;;;14.20;;
68284;SDS011;55114;52.052;5.238;2022-11-14T16:03:21;36.05;;;15.23;;
68284;SDS011;55114;52.052;5.238;2022-11-14T16:05:49;37.38;;;16.02;;
68284;SDS011;55114;52.052;5.238;2022-11-14T16:08:16;35.45;;;15.10;;
68284;SDS011;55114;52.052;5.238;2022-11-14T16:10:44;33.60;;;14.45;;
68284;SDS011;55114;52.052;5.238;2022-11-14T16:13:11;37.45;;;15.40;;
68284;SDS011;55114;52.052;5.238;2022-11-14T16:15:38;37.58;;;14.93;;